createdAt,value
2016-09-22T00:00:32.779Z,16.84
2016-09-22T00:01:42.779Z,16.84
2016-09-22T00:02:52.760Z,16.82
2016-09-22T00:04:03.039Z,16.76
2016-09-22T00:05:12.095Z,16.69
2016-09-22T00:06:21.767Z,16.69
2016-09-22T00:07:31.429Z,16.8
2016-09-22T00:08:41.411Z,16.72
2016-09-22T00:09:51.714Z,16.74
2016-09-22T00:11:02.033Z,16.81
2016-09-22T00:12:12.008Z,16.81
2016-09-22T00:13:21.673Z,16.8
2016-09-22T00:14:31.963Z,16.9
2016-09-22T00:15:42.246Z,16.82
2016-09-22T00:16:52.540Z,16.85
2016-09-22T00:18:02.829Z,16.87
2016-09-22T00:19:12.801Z,17
2016-09-22T00:20:22.782Z,16.97
2016-09-22T00:21:33.073Z,17.02
2016-09-22T00:22:43.051Z,16.87
2016-09-22T00:23:52.715Z,16.9
2016-09-22T00:25:03.005Z,16.95
2016-09-22T00:26:12.685Z,17.07
2016-09-22T00:27:23.009Z,16.97
2016-09-22T00:28:33.004Z,17.03
2016-09-22T00:29:42.989Z,16.91
2016-09-22T00:30:52.998Z,16.94
2016-09-22T00:32:03.295Z,16.92
2016-09-22T00:33:13.273Z,16.94
2016-09-22T00:34:23.578Z,16.92
2016-09-22T00:35:33.242Z,16.88
2016-09-22T00:36:43.536Z,16.88
2016-09-22T00:37:53.843Z,16.81
2016-09-22T00:39:03.811Z,16.85
2016-09-22T00:40:14.100Z,16.81
2016-09-22T00:41:24.077Z,16.87
2016-09-22T00:42:34.375Z,16.74
2016-09-22T00:43:44.655Z,16.81
2016-09-22T00:44:54.650Z,16.74
2016-09-22T00:46:04.334Z,16.7
2016-09-22T00:47:14.611Z,16.85
2016-09-22T00:48:24.586Z,16.82
2016-09-22T00:49:34.285Z,16.74
2016-09-22T00:50:44.276Z,16.76
2016-09-22T00:51:54.245Z,16.77
2016-09-22T00:53:04.230Z,16.74
2016-09-22T00:54:14.231Z,16.69
2016-09-22T00:55:23.919Z,16.72
2016-09-22T00:56:34.204Z,16.7
2016-09-22T00:57:44.177Z,16.69
2016-09-22T00:58:54.479Z,16.7
2016-09-22T01:00:04.767Z,16.7
2016-09-22T01:01:15.064Z,16.63
2016-09-22T01:04:04.724Z,16.85
2016-09-22T01:05:14.722Z,16.85
2016-09-22T01:06:25.009Z,16.88
2016-09-22T01:07:34.986Z,16.77
2016-09-22T01:08:44.982Z,16.87
2016-09-22T01:09:55.274Z,16.87
2016-09-22T01:11:05.264Z,16.88
2016-09-22T01:12:15.556Z,16.91
2016-09-22T01:13:25.851Z,17
2016-09-22T01:14:36.146Z,16.97
2016-09-22T01:15:45.826Z,16.94
2016-09-22T01:16:55.544Z,16.95
2016-09-22T01:18:05.518Z,16.94
2016-09-22T01:19:15.806Z,17.07
2016-09-22T01:20:26.094Z,17.03
2016-09-22T01:21:36.076Z,17.09
2016-09-22T01:22:46.062Z,17
2016-09-22T01:23:56.043Z,17.03
2016-09-22T01:25:06.325Z,17.06
2016-09-22T01:26:16.617Z,17.05
2016-09-22T01:27:26.611Z,17.02
2016-09-22T01:28:36.895Z,16.92
2016-09-22T01:29:46.871Z,16.91
2016-09-22T01:30:56.846Z,16.94
2016-09-22T01:32:06.821Z,16.88
2016-09-22T01:33:16.787Z,16.88
2016-09-22T01:34:26.775Z,16.77
2016-09-22T01:35:36.768Z,16.74
2016-09-22T01:36:46.472Z,16.7
2016-09-22T01:37:56.134Z,16.67
2016-09-22T01:39:06.436Z,16.74
2016-09-22T01:40:16.426Z,16.67
2016-09-22T01:41:26.713Z,16.76
2016-09-22T01:42:36.682Z,16.55
2016-09-22T01:43:46.969Z,16.58
2016-09-22T01:44:56.945Z,16.54
2016-09-22T01:46:07.239Z,16.49
2016-09-22T01:47:16.905Z,16.62
2016-09-22T01:48:26.881Z,16.58
2016-09-22T01:49:37.176Z,16.44
2016-09-22T01:50:47.148Z,16.58
2016-09-22T01:51:57.425Z,16.58
2016-09-22T01:53:07.735Z,16.57
2016-09-22T01:54:17.716Z,16.62
2016-09-22T01:55:27.999Z,16.55
2016-09-22T01:56:38.282Z,16.51
2016-09-22T01:57:48.558Z,16.54
2016-09-22T01:58:58.527Z,16.4
2016-09-22T02:00:08.805Z,16.47
2016-09-22T02:01:18.487Z,16.47
2016-09-22T02:02:28.473Z,16.45
2016-09-22T02:03:38.449Z,16.4
2016-09-22T02:04:48.416Z,16.47
2016-09-22T02:05:57.784Z,16.47
2016-09-22T02:07:08.069Z,16.44
2016-09-22T02:08:17.743Z,16.39
2016-09-22T02:09:27.738Z,16.37
2016-09-22T02:10:37.713Z,16.36
2016-09-22T02:11:47.697Z,16.45
2016-09-22T02:12:57.973Z,16.48
2016-09-22T02:14:07.945Z,16.44
2016-09-22T02:15:17.927Z,16.47
2016-09-22T02:16:28.218Z,16.51
2016-09-22T02:17:38.505Z,16.42
2016-09-22T02:18:49.046Z,16.45
2016-09-22T02:19:59.349Z,16.45
2016-09-22T02:21:09.637Z,16.44
2016-09-22T02:22:19.630Z,16.37
2016-09-22T02:23:29.924Z,16.4
2016-09-22T02:24:39.585Z,16.32
2016-09-22T02:25:49.876Z,16.32
2016-09-22T02:26:59.847Z,16.32
2016-09-22T02:28:09.841Z,16.39
2016-09-22T02:29:19.512Z,16.44
2016-09-22T02:30:29.487Z,16.39
2016-09-22T02:31:39.786Z,16.36
2016-09-22T02:32:49.767Z,16.34
2016-09-22T02:33:59.122Z,16.29
2016-09-22T02:35:09.413Z,16.25
2016-09-22T02:36:19.383Z,16.18
2016-09-22T02:37:29.354Z,16.17
2016-09-22T02:38:39.320Z,16.07
2016-09-22T02:39:48.986Z,16.04
2016-09-22T02:40:58.653Z,16.08
2016-09-22T02:42:08.944Z,16.02
2016-09-22T02:43:19.254Z,16
2016-09-22T02:44:28.929Z,16
2016-09-22T02:45:39.204Z,15.96
2016-09-22T02:46:49.185Z,15.93
2016-09-22T02:47:59.482Z,16.07
2016-09-22T02:49:09.161Z,16.02
2016-09-22T02:50:19.445Z,15.96
2016-09-22T02:51:29.728Z,15.96
2016-09-22T02:52:40.008Z,15.99
2016-09-22T02:53:50.300Z,15.93
2016-09-22T02:55:00.267Z,15.98
2016-09-22T02:56:09.632Z,16
2016-09-22T02:57:19.929Z,15.92
2016-09-22T02:58:29.596Z,15.96
2016-09-22T02:59:39.573Z,15.88
2016-09-22T03:00:49.866Z,15.88
2016-09-22T03:32:41.266Z,12.96
2016-09-22T03:33:51.245Z,13.01
2016-09-22T03:35:01.225Z,12.99
2016-09-22T03:36:11.508Z,13.1
2016-09-22T03:37:21.789Z,13.17
2016-09-22T03:38:32.005Z,13.35
2016-09-22T03:39:42.287Z,13.53
2016-09-22T03:40:51.960Z,13.63
2016-09-22T03:42:01.957Z,13.81
2016-09-22T03:43:11.937Z,13.95
2016-09-22T03:44:21.913Z,14.21
2016-09-22T03:45:31.570Z,14.41
2016-09-22T03:46:41.866Z,14.56
2016-09-22T03:47:51.838Z,14.64
2016-09-22T03:49:02.139Z,14.74
2016-09-22T03:50:12.417Z,15
2016-09-22T03:51:22.690Z,15.15
2016-09-22T03:52:32.987Z,15.23
2016-09-22T03:53:43.274Z,15.37
2016-09-22T03:54:52.942Z,15.45
2016-09-22T03:56:02.909Z,15.45
2016-09-22T03:57:12.889Z,15.59
2016-09-22T03:58:22.872Z,15.68
2016-09-22T03:59:32.530Z,15.73
2016-09-22T04:00:42.188Z,15.81
2016-09-22T04:01:52.166Z,15.86
2016-09-22T04:03:02.168Z,15.88
2016-09-22T04:04:12.137Z,15.95
2016-09-22T04:05:22.107Z,15.88
2016-09-22T04:06:32.074Z,15.88
2016-09-22T04:07:42.039Z,15.93
2016-09-22T04:08:52.326Z,15.88
2016-09-22T04:10:01.987Z,15.89
2016-09-22T04:11:12.270Z,15.98
2016-09-22T04:12:22.565Z,15.98
2016-09-22T04:13:32.848Z,15.96
2016-09-22T04:14:42.518Z,15.98
2016-09-22T04:15:52.794Z,15.99
2016-09-22T04:17:02.448Z,15.96
2016-09-22T04:18:12.733Z,15.93
2016-09-22T04:19:22.704Z,15.99
2016-09-22T04:20:32.672Z,15.88
2016-09-22T04:21:42.667Z,15.95
2016-09-22T04:22:52.955Z,15.91
2016-09-22T04:24:02.926Z,15.89
2016-09-22T04:25:12.903Z,15.91
2016-09-22T04:26:22.895Z,15.88
2016-09-22T04:27:32.556Z,15.86
2016-09-22T04:28:42.847Z,15.91
2016-09-22T04:29:52.848Z,15.88
2016-09-22T04:31:03.132Z,16.02
2016-09-22T04:32:13.417Z,15.99
2016-09-22T04:33:23.100Z,16.08
2016-09-22T04:34:32.744Z,15.91
2016-09-22T04:35:43.030Z,15.95
2016-09-22T04:36:52.701Z,15.98
2016-09-22T04:38:02.690Z,15.95
2016-09-22T04:39:12.354Z,15.96
2016-09-22T04:40:22.343Z,15.95
2016-09-22T04:41:32.324Z,15.93
2016-09-22T04:42:42.310Z,15.93
2016-09-22T04:43:51.982Z,15.86
2016-09-22T04:45:02.293Z,15.89
2016-09-22T04:46:12.568Z,15.88
2016-09-22T04:47:22.537Z,15.98
2016-09-22T04:48:32.204Z,15.96
2016-09-22T04:49:41.871Z,16.06
2016-09-22T04:50:51.856Z,16.04
2016-09-22T04:52:02.153Z,16.06
2016-09-22T04:53:12.456Z,16.18
2016-09-22T04:54:22.137Z,16.21
2016-09-22T04:55:32.428Z,16.21
2016-09-22T04:56:42.399Z,16.29
2016-09-22T04:57:52.685Z,16.36
2016-09-22T04:59:02.667Z,16.47
2016-09-22T05:00:12.645Z,16.37
2016-09-22T05:01:22.931Z,16.36
2016-09-22T05:02:33.217Z,16.4
2016-09-22T05:03:43.518Z,16.44
2016-09-22T05:04:53.826Z,16.45
2016-09-22T05:06:03.809Z,16.42
2016-09-22T05:07:14.090Z,16.47
2016-09-22T05:08:24.066Z,16.44
2016-09-22T05:09:34.048Z,16.55
2016-09-22T05:10:44.036Z,16.58
2016-09-22T05:11:54.330Z,16.55
2016-09-22T05:13:04.313Z,16.54
2016-09-22T05:14:14.300Z,16.63
2016-09-22T05:15:23.966Z,16.74
2016-09-22T05:16:34.251Z,16.67
2016-09-22T05:17:44.244Z,16.76
2016-09-22T05:18:53.920Z,16.77
2016-09-22T05:20:03.888Z,16.74
2016-09-22T05:21:13.557Z,16.76
2016-09-22T05:22:23.552Z,16.8
2016-09-22T05:23:33.539Z,16.7
2016-09-22T05:24:43.519Z,16.76
2016-09-22T05:25:53.193Z,16.84
2016-09-22T05:27:03.178Z,16.84
2016-09-22T05:28:13.170Z,16.77
2016-09-22T05:29:23.143Z,16.7
2016-09-22T05:30:33.420Z,16.74
2016-09-22T05:31:43.708Z,16.72
2016-09-22T05:32:53.998Z,16.72
2016-09-22T05:34:03.679Z,16.62
2016-09-22T05:35:13.043Z,16.62
2016-09-22T05:36:23.024Z,16.62
2016-09-22T05:37:32.709Z,16.65
2016-09-22T05:38:42.992Z,16.73
2016-09-22T05:39:52.978Z,16.69
2016-09-22T05:41:03.275Z,16.69
2016-09-22T05:42:13.566Z,16.73
2016-09-22T05:43:23.859Z,16.65
2016-09-22T05:44:34.145Z,16.74
2016-09-22T05:45:44.432Z,16.73
2016-09-22T05:46:54.708Z,16.72
2016-09-22T05:48:05.002Z,16.67
2016-09-22T05:49:15.307Z,16.67
2016-09-22T05:50:25.596Z,16.81
2016-09-22T05:51:35.562Z,16.82
2016-09-22T05:52:45.554Z,16.88
2016-09-22T05:53:55.830Z,16.9
2016-09-22T05:55:05.821Z,16.97
2016-09-22T05:56:15.794Z,17.05
2016-09-22T05:57:26.095Z,17.15
2016-09-22T05:58:36.072Z,17.25
2016-09-22T05:59:46.363Z,17.42
2016-09-22T06:00:56.326Z,17.54
2016-09-22T06:02:06.303Z,17.66
2016-09-22T06:03:16.595Z,17.77
2016-09-22T06:04:26.571Z,17.94
2016-09-22T06:05:35.949Z,17.96
2016-09-22T06:06:45.619Z,18.06
2016-09-22T06:07:55.296Z,18.17
2016-09-22T06:09:05.591Z,18.14
2016-09-22T06:10:15.877Z,18.21
2016-09-22T06:11:25.850Z,18.13
2016-09-22T06:12:35.832Z,18.17
2016-09-22T06:13:45.798Z,18.34
2016-09-22T06:14:55.781Z,18.21
2016-09-22T06:16:06.075Z,18.31
2016-09-22T06:17:16.054Z,18.19
2016-09-22T06:18:26.060Z,18.21
2016-09-22T06:19:36.038Z,18.21
2016-09-22T06:20:45.710Z,18.19
2016-09-22T06:21:55.381Z,18.26
2016-09-22T06:23:05.361Z,18.17
2016-09-22T06:24:15.329Z,18.34
2016-09-22T06:25:25.321Z,18.16
2016-09-22T06:26:35.302Z,18.16
2016-09-22T06:27:45.283Z,18.19
2016-09-22T06:28:54.645Z,18.16
2016-09-22T06:30:04.637Z,18.05
2016-09-22T06:31:14.619Z,18.32
2016-09-22T06:32:24.600Z,18.36
2016-09-22T06:33:34.906Z,18.5
2016-09-22T06:34:45.211Z,18.49
2016-09-22T06:35:55.502Z,18.45
2016-09-22T06:37:05.788Z,18.38
2016-09-22T06:38:16.069Z,18.27
2016-09-22T06:39:26.342Z,18.23
2016-09-22T06:40:36.626Z,18.19
2016-09-22T06:41:46.903Z,18.14
2016-09-22T06:42:56.881Z,18.06
2016-09-22T06:44:06.577Z,17.98
2016-09-22T06:45:16.249Z,18.03
2016-09-22T06:46:26.545Z,18.02
2016-09-22T06:47:36.214Z,17.94
2016-09-22T06:48:46.508Z,18.21
2016-09-22T06:49:56.186Z,18.16
2016-09-22T06:51:06.467Z,18.16
2016-09-22T06:52:16.144Z,18.19
2016-09-22T06:53:26.431Z,18.2
2016-09-22T06:54:36.709Z,18.23
2016-09-22T06:55:47.005Z,18.32
2016-09-22T06:56:56.973Z,18.21
2016-09-22T06:58:06.954Z,18.2
2016-09-22T06:59:17.241Z,18.17
2016-09-22T07:00:27.206Z,18.35
2016-09-22T07:01:36.573Z,18.32
2016-09-22T07:02:46.885Z,18.44
2016-09-22T07:03:56.865Z,18.41
2016-09-22T07:05:07.153Z,18.49
2016-09-22T07:06:17.130Z,18.49
2016-09-22T07:07:27.476Z,18.54
2016-09-22T07:08:37.168Z,18.54
2016-09-22T07:09:47.465Z,18.61
2016-09-22T07:10:57.457Z,18.68
2016-09-22T07:12:07.447Z,18.75
2016-09-22T07:13:17.140Z,18.72
2016-09-22T07:14:27.437Z,18.78
2016-09-22T07:15:37.428Z,18.84
2016-09-22T07:16:47.715Z,18.91
2016-09-22T07:17:57.696Z,18.81
2016-09-22T07:19:07.998Z,18.87
2016-09-22T07:20:18.290Z,18.82
2016-09-22T07:21:28.598Z,18.97
2016-09-22T07:22:38.284Z,18.94
2016-09-22T07:23:48.268Z,18.97
2016-09-22T07:24:58.553Z,19.06
2016-09-22T07:26:08.849Z,19.09
2016-09-22T07:27:18.831Z,18.96
2016-09-22T07:28:28.189Z,19.09
2016-09-22T07:29:38.473Z,19.15
2016-09-22T07:30:48.147Z,19.16
2016-09-22T07:31:58.152Z,19.16
2016-09-22T07:33:07.830Z,19.27
2016-09-22T07:34:18.117Z,19.28
2016-09-22T07:35:27.473Z,19.31
2016-09-22T07:36:37.776Z,19.46
2016-09-22T07:37:47.783Z,19.42
2016-09-22T07:38:57.749Z,19.53
2016-09-22T07:40:07.730Z,19.52
2016-09-22T07:41:17.713Z,19.55
2016-09-22T07:42:28.009Z,19.71
2016-09-22T07:43:37.996Z,19.74
2016-09-22T07:44:47.992Z,19.82
2016-09-22T07:45:58.300Z,19.87
2016-09-22T07:47:08.295Z,19.86
2016-09-22T07:48:17.653Z,19.8
2016-09-22T07:49:27.630Z,19.87
2016-09-22T07:50:37.309Z,19.95
2016-09-22T07:51:47.269Z,19.95
2016-09-22T07:52:56.936Z,19.95
2016-09-22T07:54:07.222Z,20.07
2016-09-22T07:55:17.522Z,20.15
2016-09-22T07:56:27.515Z,20.15
2016-09-22T07:57:37.492Z,20.22
2016-09-22T07:58:47.478Z,20.19
2016-09-22T07:59:57.799Z,20.25
2016-09-22T08:01:08.103Z,20.35
2016-09-22T08:02:18.387Z,20.35
2016-09-22T08:03:28.375Z,20.44
2016-09-22T08:04:38.668Z,20.56
2016-09-22T08:05:48.949Z,20.49
2016-09-22T08:06:59.242Z,20.48
2016-09-22T08:08:09.527Z,20.57
2016-09-22T08:09:19.517Z,20.46
2016-09-22T08:10:29.802Z,20.6
2016-09-22T08:11:39.828Z,20.66
2016-09-22T08:12:50.129Z,20.66
2016-09-22T08:14:00.112Z,20.67
2016-09-22T08:15:10.089Z,20.63
2016-09-22T08:16:20.061Z,20.66
2016-09-22T08:17:30.035Z,20.71
2016-09-22T08:18:40.015Z,20.78
2016-09-22T08:19:50.330Z,20.82
2016-09-22T08:21:00.607Z,20.9
2016-09-22T08:22:10.889Z,20.85
2016-09-22T08:23:20.868Z,20.9
2016-09-22T08:24:30.857Z,20.81
2016-09-22T08:25:41.136Z,20.88
2016-09-22T08:26:51.467Z,20.91
2016-09-22T08:28:01.467Z,20.93
2016-09-22T08:29:11.438Z,21
2016-09-22T08:30:21.736Z,21.08
2016-09-22T08:31:32.027Z,21.11
2016-09-22T08:32:42.319Z,21.08
2016-09-22T08:33:52.617Z,21.11
2016-09-22T08:35:02.917Z,21.09
2016-09-22T08:36:13.212Z,21.11
2016-09-22T08:37:23.201Z,21.13
2016-09-22T08:38:33.184Z,21.18
2016-09-22T08:39:43.475Z,21.25
2016-09-22T08:40:53.452Z,21.27
2016-09-22T08:42:03.758Z,21.25
2016-09-22T08:43:14.085Z,21.4
2016-09-22T08:44:24.075Z,21.43
2016-09-22T08:45:34.053Z,21.49
2016-09-22T08:46:44.042Z,21.52
2016-09-22T08:47:54.026Z,21.56
2016-09-22T08:49:04.010Z,21.53
2016-09-22T08:50:13.396Z,21.58
2016-09-22T08:51:23.697Z,21.7
2016-09-22T08:52:33.703Z,21.64
2016-09-22T08:53:44.071Z,21.78
2016-09-22T08:54:54.038Z,21.73
2016-09-22T08:56:03.416Z,21.86
2016-09-22T08:57:13.087Z,21.89
2016-09-22T08:58:22.462Z,21.92
2016-09-22T08:59:32.774Z,21.93
2016-09-22T09:00:42.446Z,22
2016-09-22T09:01:51.813Z,22.08
2016-09-22T09:03:01.815Z,22.05
2016-09-22T09:04:12.182Z,22.14
2016-09-22T09:05:22.463Z,22.11
2016-09-22T09:06:32.745Z,22.11
2016-09-22T09:07:42.731Z,22.11
2016-09-22T09:08:52.723Z,22.09
2016-09-22T09:10:02.704Z,22.12
2016-09-22T09:11:12.718Z,22.11
2016-09-22T09:12:23.016Z,22.15
2016-09-22T09:13:32.999Z,22.23
2016-09-22T09:14:42.972Z,22.26
2016-09-22T09:15:52.958Z,22.27
2016-09-22T09:17:02.336Z,22.45
2016-09-22T09:18:12.627Z,22.44
2016-09-22T09:19:22.909Z,22.54
2016-09-22T09:20:33.205Z,22.52
2016-09-22T09:21:43.196Z,22.59
2016-09-22T09:22:53.195Z,22.66
2016-09-22T09:24:03.166Z,22.66
2016-09-22T09:25:13.457Z,22.71
2016-09-22T09:26:23.139Z,22.73
2016-09-22T09:27:33.421Z,22.78
2016-09-22T09:28:43.404Z,22.79
2016-09-22T09:29:53.689Z,22.75
2016-09-22T09:31:03.999Z,22.88
2016-09-22T09:32:14.310Z,22.86
2016-09-22T09:33:24.332Z,22.91
2016-09-22T09:34:34.331Z,22.94
2016-09-22T09:35:44.323Z,23.04
2016-09-22T09:36:54.303Z,23.16
2016-09-22T09:38:04.286Z,23.24
2016-09-22T09:39:14.274Z,23.42
2016-09-22T09:40:23.959Z,23.48
2016-09-22T09:41:34.270Z,23.6
2016-09-22T09:42:43.940Z,23.7
2016-09-22T09:43:54.233Z,23.85
2016-09-22T09:45:04.526Z,23.97
2016-09-22T09:46:14.810Z,24
2016-09-22T09:47:24.800Z,24.17
2016-09-22T09:48:35.089Z,24.15
2016-09-22T09:49:44.765Z,24.27
2016-09-22T09:50:54.143Z,24.33
2016-09-22T09:52:04.133Z,23.97
2016-09-22T09:53:14.112Z,23.74
2016-09-22T09:54:24.117Z,23.77
2016-09-22T09:55:34.448Z,23.72
2016-09-22T09:56:44.760Z,23.1
2016-09-22T09:57:55.053Z,22.92
2016-09-22T09:59:05.038Z,22.66
2016-09-22T10:00:14.715Z,23.06
2016-09-22T10:01:24.997Z,23.24
2016-09-22T10:02:35.284Z,23.56
2016-09-22T10:03:44.977Z,23.62
2016-09-22T10:04:55.277Z,23.81
2016-09-22T10:06:05.568Z,23.99
2016-09-22T10:07:15.541Z,24.02
2016-09-22T10:08:25.233Z,24.19
2016-09-22T10:09:35.235Z,24.29
2016-09-22T10:10:45.226Z,24.42
2016-09-22T10:11:55.509Z,24.45
2016-09-22T10:13:05.820Z,24.44
2016-09-22T10:14:16.119Z,24.59
2016-09-22T10:15:26.103Z,24.69
2016-09-22T10:16:36.405Z,24.74
2016-09-22T10:17:46.393Z,24.71
2016-09-22T10:18:56.689Z,24.74
2016-09-22T10:20:06.709Z,24.77
2016-09-22T10:21:16.714Z,24.74
2016-09-22T10:22:26.699Z,24.71
2016-09-22T10:23:36.993Z,24.67
2016-09-22T10:24:46.990Z,24.74
2016-09-22T10:25:56.663Z,24.83
2016-09-22T10:27:06.650Z,24.89
2016-09-22T10:28:16.936Z,24.9
2016-09-22T10:29:27.219Z,24.94
2016-09-22T10:30:37.217Z,24.96
2016-09-22T10:31:47.516Z,25.15
2016-09-22T10:32:57.523Z,25.26
2016-09-22T10:34:07.254Z,25.42
2016-09-22T10:35:16.934Z,25.56
2016-09-22T10:36:26.308Z,25.45
2016-09-22T10:37:35.983Z,25.22
2016-09-22T10:38:45.971Z,24.86
2016-09-22T10:39:55.949Z,24.54
2016-09-22T10:41:06.251Z,24.17
2016-09-22T10:42:16.238Z,24.02
2016-09-22T10:43:26.529Z,23.81
2016-09-22T10:44:36.530Z,23.59
2016-09-22T10:45:46.829Z,23.48
2016-09-22T10:46:56.812Z,23.47
2016-09-22T10:48:06.499Z,23.35
2016-09-22T10:49:16.488Z,23.32
2016-09-22T10:50:26.490Z,23.41
2016-09-22T10:51:36.486Z,23.57
2016-09-22T10:52:46.783Z,24.36
2016-09-22T10:53:57.089Z,24.96
2016-09-22T10:55:07.390Z,25.32
2016-09-22T10:56:17.386Z,25.63
2016-09-22T10:57:27.054Z,25.76
2016-09-22T10:58:37.049Z,25.93
2016-09-22T10:59:47.342Z,25.91
2016-09-22T11:00:57.633Z,25.62
2016-09-22T11:02:07.617Z,26.03
2016-09-22T11:03:17.907Z,26.16
2016-09-22T11:04:27.914Z,26.15
2016-09-22T11:05:38.207Z,26.2
2016-09-22T11:06:48.205Z,25.86
2016-09-22T11:07:58.224Z,25.37
2016-09-22T11:09:08.507Z,24.89
2016-09-22T11:10:18.492Z,24.63
2016-09-22T11:11:28.466Z,24.32
2016-09-22T11:12:38.457Z,24.14
2016-09-22T11:13:48.129Z,24.07
2016-09-22T11:14:57.797Z,24.02
2016-09-22T11:16:08.102Z,23.94
2016-09-22T11:17:18.379Z,24.33
2016-09-22T11:18:28.674Z,24.89
2016-09-22T11:19:38.672Z,25.15
2016-09-22T11:20:48.963Z,25.44
2016-09-22T11:21:58.956Z,25.7
2016-09-22T11:23:09.248Z,25.89
2016-09-22T11:24:19.560Z,26.16
2016-09-22T11:25:29.536Z,26.32
2016-09-22T11:26:39.520Z,26.67
2016-09-22T11:27:49.193Z,26.78
2016-09-22T11:28:59.499Z,26.78
2016-09-22T11:30:08.888Z,26.87
2016-09-22T11:31:19.180Z,26.79
2016-09-22T11:32:29.459Z,26.57
2016-09-22T11:33:39.457Z,26
2016-09-22T11:34:49.433Z,25.54
2016-09-22T11:35:59.427Z,25.14
2016-09-22T11:37:09.404Z,24.83
2016-09-22T11:38:19.074Z,25
2016-09-22T11:39:29.057Z,25.14
2016-09-22T11:40:39.046Z,25.49
2016-09-22T11:41:49.334Z,25.63
2016-09-22T11:42:59.316Z,25.39
2016-09-22T11:44:09.299Z,25.48
2016-09-22T11:45:19.587Z,25.62
2016-09-22T11:46:29.894Z,25.7
2016-09-22T11:47:39.569Z,25.91
2016-09-22T11:48:49.559Z,25.85
2016-09-22T11:49:59.844Z,25.86
2016-09-22T11:51:09.839Z,25.78
2016-09-22T11:52:20.129Z,25.47
2016-09-22T11:53:30.412Z,25.6
2016-09-22T11:54:40.716Z,25.59
2016-09-22T11:55:50.725Z,25.81
2016-09-22T11:57:01.013Z,25.82
2016-09-22T11:58:11.010Z,25.93
2016-09-22T11:59:20.996Z,26.15
2016-09-22T12:00:31.304Z,26.19
2016-09-22T12:01:41.299Z,26.24
2016-09-22T12:02:51.277Z,26.32
2016-09-22T12:04:01.573Z,26.11
2016-09-22T12:05:11.263Z,25.74
2016-09-22T12:06:21.571Z,25.12
2016-09-22T12:07:31.573Z,24.78
2016-09-22T12:08:41.237Z,24.56
2016-09-22T12:09:51.237Z,24.27
2016-09-22T12:11:01.226Z,24.04
2016-09-22T12:12:11.532Z,23.89
2016-09-22T12:13:21.221Z,23.63
2016-09-22T12:14:31.522Z,23.48
2016-09-22T12:15:41.886Z,23.24
2016-09-22T12:16:52.174Z,23.22
2016-09-22T12:18:02.164Z,23.04
2016-09-22T12:19:12.481Z,22.92
2016-09-22T12:20:22.478Z,23.09
2016-09-22T12:21:32.690Z,23.62
2016-09-22T12:22:42.977Z,23.99
2016-09-22T12:23:53.260Z,24.11
2016-09-22T12:25:02.931Z,24.18
2016-09-22T12:26:12.928Z,23.93
2016-09-22T12:27:23.230Z,23.71
2016-09-22T12:28:32.912Z,23.59
2016-09-22T12:29:42.895Z,23.7
2016-09-22T12:30:52.595Z,23.55
2016-09-22T12:32:02.890Z,23.79
2016-09-22T12:33:13.222Z,24.44
2016-09-22T12:34:23.528Z,24.8
2016-09-22T12:35:33.503Z,25.09
2016-09-22T12:36:43.795Z,25.33
2016-09-22T12:37:54.085Z,25.54
2016-09-22T12:39:04.392Z,25.69
2016-09-22T12:40:14.696Z,25.89
2016-09-22T12:41:24.725Z,26.06
2016-09-22T12:42:35.013Z,26.23
2016-09-22T12:43:44.715Z,26.3
2016-09-22T12:44:55.017Z,26.19
2016-09-22T12:46:04.676Z,25.86
2016-09-22T12:47:13.725Z,25.76
2016-09-22T12:48:24.043Z,25.74
2016-09-22T12:49:34.028Z,25.57
2016-09-22T12:50:43.395Z,25.6
2016-09-22T12:51:53.676Z,25.39
2016-09-22T12:53:03.678Z,24.77
2016-09-22T12:54:13.367Z,24.4
2016-09-22T12:55:23.656Z,24.11
2016-09-22T12:56:33.652Z,24.21
2016-09-22T12:57:43.625Z,24.33
2016-09-22T12:58:53.907Z,23.93
2016-09-22T13:00:04.204Z,24.18
2016-09-22T13:01:13.575Z,24.45
2016-09-22T13:02:23.857Z,24.7
2016-09-22T13:03:34.155Z,24.8
2016-09-22T13:04:44.151Z,24.85
2016-09-22T13:05:53.822Z,24.94
2016-09-22T13:07:03.807Z,25.05
2016-09-22T13:08:14.105Z,25.19
2016-09-22T13:09:24.402Z,25.26
2016-09-22T13:10:34.081Z,25.37
2016-09-22T13:11:44.381Z,25.39
2016-09-22T13:12:54.677Z,25.41
2016-09-22T13:14:04.973Z,25.44
2016-09-22T13:15:14.651Z,25.44
2016-09-22T13:16:24.952Z,25.51
2016-09-22T13:17:35.249Z,25.52
2016-09-22T13:18:45.241Z,25.51
2016-09-22T13:19:55.544Z,25.51
2016-09-22T13:21:05.846Z,25.51
2016-09-22T13:22:16.181Z,25.44
2016-09-22T13:23:26.480Z,25.45
2016-09-22T13:24:36.779Z,25.57
2016-09-22T13:25:46.777Z,25.47
2016-09-22T13:26:57.066Z,25.47
2016-09-22T13:28:07.064Z,25.47
2016-09-22T13:29:17.031Z,25.44
2016-09-22T13:30:27.327Z,25.54
2016-09-22T13:31:37.329Z,25.56
2016-09-22T13:32:47.338Z,25.57
2016-09-22T13:33:57.351Z,25.52
2016-09-22T13:35:07.647Z,25.54
2016-09-22T13:36:17.687Z,25.54
2016-09-22T13:37:27.392Z,25.54
2016-09-22T13:38:37.863Z,25.49
2016-09-22T13:39:48.280Z,25.45
2016-09-22T13:40:58.282Z,25.49
2016-09-22T13:42:08.566Z,25.56
2016-09-22T13:43:18.166Z,25.49
2016-09-22T13:44:28.158Z,25.52
2016-09-22T13:45:38.445Z,25.54
2016-09-22T13:46:48.117Z,25.49
2016-09-22T13:47:57.804Z,25.51
2016-09-22T13:49:07.796Z,25.49
2016-09-22T13:50:18.094Z,25.59
2016-09-22T13:51:28.093Z,25.54
2016-09-22T13:52:38.095Z,25.56
2016-09-22T13:53:48.080Z,25.52
2016-09-22T13:54:58.384Z,25.56
2016-09-22T13:56:08.697Z,25.56
2016-09-22T13:57:19.018Z,25.54
2016-09-22T13:58:29.329Z,25.59
2016-09-22T13:59:39.307Z,25.49
2016-09-22T14:00:49.299Z,25.42
2016-09-22T14:01:59.650Z,25.38
2016-09-22T14:03:10.230Z,25.32
2016-09-22T14:04:20.627Z,25.3
2016-09-22T14:05:30.979Z,25.26
2016-09-22T14:06:41.283Z,25.27
2016-09-22T14:07:51.579Z,25.23
2016-09-22T14:09:01.639Z,25.2
2016-09-22T14:10:12.012Z,25.12
2016-09-22T14:11:22.056Z,25.17
2016-09-22T14:12:31.790Z,25.17
2016-09-22T14:13:42.141Z,25.24
2016-09-22T14:14:52.495Z,25.24
2016-09-22T14:16:02.547Z,25.26
2016-09-22T14:17:12.589Z,25.24
2016-09-22T14:18:22.932Z,25.23
2016-09-22T14:19:32.972Z,25.19
2016-09-22T14:20:43.340Z,25.12
2016-09-22T14:21:53.698Z,25.19
2016-09-22T14:23:04.067Z,25.11
2016-09-22T14:24:13.788Z,25.14
2016-09-22T14:25:24.123Z,25.07
2016-09-22T14:26:33.565Z,25.15
2016-09-22T14:27:43.911Z,25.02
2016-09-22T14:28:54.253Z,25.02
2016-09-22T14:30:04.587Z,24.93
2016-09-22T14:31:14.628Z,24.97
2016-09-22T14:32:24.630Z,24.83
2016-09-22T14:33:34.947Z,24.87
2016-09-22T14:34:45.282Z,24.9
2016-09-22T14:35:55.583Z,24.85
2016-09-22T14:37:05.581Z,24.86
2016-09-22T14:38:15.582Z,24.89
2016-09-22T14:39:25.586Z,24.83
2016-09-22T14:40:35.273Z,24.82
2016-09-22T14:41:45.281Z,24.77
2016-09-22T14:42:55.589Z,24.75
2016-09-22T14:44:05.579Z,24.75
2016-09-22T14:45:15.566Z,24.7
2016-09-22T14:46:25.873Z,24.66
2016-09-22T14:47:35.861Z,24.7
2016-09-22T14:48:46.163Z,24.7
2016-09-22T14:49:55.853Z,24.75
2016-09-22T14:51:05.858Z,24.59
2016-09-22T14:52:15.863Z,24.64
2016-09-22T14:53:25.863Z,24.7
2016-09-22T14:54:35.886Z,24.66
2016-09-22T14:55:45.881Z,24.63
2016-09-22T14:56:56.198Z,24.59
2016-09-22T14:58:06.199Z,24.54
2016-09-22T14:59:16.216Z,24.42
2016-09-22T15:00:26.522Z,24.32
2016-09-22T15:01:36.841Z,24.24
2016-09-22T15:02:47.156Z,24.19
2016-09-22T15:03:56.215Z,24.11
2016-09-22T15:05:06.542Z,24.09
2016-09-22T15:06:16.542Z,24.03
2016-09-22T15:07:26.853Z,23.9
2016-09-22T15:08:37.174Z,23.96
2016-09-22T15:09:46.563Z,23.87
2016-09-22T15:10:56.865Z,23.75
2016-09-22T15:12:06.566Z,23.7
2016-09-22T15:13:16.887Z,23.71
2016-09-22T15:14:27.200Z,23.7
2016-09-22T15:15:37.497Z,23.67
2016-09-22T15:16:47.193Z,23.66
2016-09-22T15:17:57.207Z,23.59
2016-09-22T15:19:07.509Z,23.66
2016-09-22T15:20:17.813Z,23.55
2016-09-22T15:21:28.117Z,23.64
2016-09-22T15:22:38.436Z,23.52
2016-09-22T15:23:48.456Z,23.52
2016-09-22T15:24:58.463Z,23.34
2016-09-22T15:26:08.465Z,23.35
2016-09-22T15:27:18.459Z,23.26
2016-09-22T15:28:28.771Z,23.24
2016-09-22T15:29:37.846Z,23.19
2016-09-22T15:30:48.162Z,23.16
2016-09-22T15:31:58.469Z,23.12
2016-09-22T15:33:08.482Z,23.14
2016-09-22T15:34:18.788Z,23.16
2016-09-22T15:35:28.474Z,23.01
2016-09-22T15:36:38.461Z,23.03
2016-09-22T15:37:48.790Z,23.09